Solanea, Brazil
Current Conditions -  °F | °C
As of 5:00 AM on Saturday 29 Nov 2014 (Local Time) from SBKG Reporting Station
Broken Clouds Broken Clouds  
Wind Chill: 70°   Ceiling: 9000
Heat Index: 70°   Visibility: 6mi
Dew Point: 68°   Wind: 8mph
Humidity: 94%   Direction: 110°ESE
Pressure: 29.97"   Gusts: NA
Location:  6.76°S, 35.54°W
Report Text: SBKG 290800Z 11007KT 9999 SCT011 BKN090 21/20 Q1015
Loading
Personal Weather Stations






























Interactive Weather Map New forecast layout! Learn more

10-Day Weather Forecast

Advertisements
Track Severe Weather on mobile